• Join FlightAware (Why Join?)
  • Login
  • US Flag 
02:09AM EDT


 

Airport Tracker/Info


-or-


 

Live Flight TrackerFlight Track Log ✈ SWA472 ✈ 22-Apr-2013 ✈ KONT - KSMF

Flight Track Log - Related Links

Times and Time Zones

All times are in EDT time to prevent confusion due to time zone crossing. See the SWA472 flight status page for this flight to view local times or setup timezone preferences in your user account.

Time Position Orientation Groundspeed Altitude Reporting Facility
EDT Latitude Longitude Course Direction KTS MPH feet Rate Location/Type
09:12AM 34.0558 -117.5792 203° Southwest 149 171 2,000  Level Los Angeles Center
09:13AM 34.0200 -117.5978 203° Southwest 222 255 3,900 2,280 Climbing Los Angeles Center
09:14AM 34.0450 -117.6711 292° West 233 268 6,700 1,500 Climbing Los Angeles Center
09:15AM 34.0700 -117.7564 290° West 258 297 7,000 720 Climbing Los Angeles Center
09:16AM 34.1081 -117.8292 302° West 266 306 8,200 2,040 Climbing Los Angeles Center
09:17AM 34.1675 -117.9161 310° West 278 320 11,200 2,760 Climbing Los Angeles Center
09:18AM 34.2314 -118.0111 309° West 354 407 13,900 2,880 Climbing Los Angeles Center
09:19AM 34.2978 -118.1092 309° West 376 433 17,100 3,000 Climbing Los Angeles Center
09:20AM 34.3678 -118.2117 310° West 394 453 20,000 2,700 Climbing Los Angeles Center
09:21AM 34.4406 -118.3203 309° West 416 479 22,700 2,400 Climbing Los Angeles Center
09:22AM 34.5161 -118.4264 311° West 417 480 25,000 2,040 Climbing Los Angeles Center
09:23AM 34.6258 -118.4953 333° Northwest 447 514 26,900 1,800 Climbing Los Angeles Center
09:24AM 34.7400 -118.5614 335° Northwest 454 522 28,700 2,280 Climbing Los Angeles Center
09:25AM 34.8550 -118.6264 335° Northwest 455 524 31,600 2,520 Climbing Los Angeles Center
09:26AM 34.9822 -118.6983 335° Northwest 440 506 33,900 1,920 Climbing Los Angeles Center
09:27AM 35.0925 -118.7603 335° Northwest 437 503 35,600 1,020 Climbing Los Angeles Center
09:28AM 35.2017 -118.8233 335° Northwest 436 502 36,000 180 Climbing Los Angeles Center
09:29AM 35.3119 -118.8858 335° Northwest 437 503 36,000  Level Los Angeles Center
09:30AM 35.4219 -118.9497 335° Northwest 438 504 36,000  Level Los Angeles Center
09:31AM 35.5303 -119.0133 334° Northwest 437 503 36,000  Level Los Angeles Center
09:32AM 35.6414 -119.0769 335° Northwest 438 504 36,000  Level Los Angeles Center
09:33AM 35.7219 -119.1322 331° Northwest 432 497 36,000  Level Oakland Center
09:34AM 35.8258 -119.2061 330° Northwest 431 496 36,000  Level Oakland Center
09:35AM 35.9519 -119.2947 330° Northwest 434 499 36,000  Level Oakland Center
09:36AM 36.0572 -119.3681 331° Northwest 439 505 36,000  Level Oakland Center
09:37AM 36.1614 -119.4403 331° Northwest 433 498 36,000  Level Oakland Center
09:38AM 36.2675 -119.5150 330° Northwest 439 505 36,000  Level Oakland Center
09:39AM 36.3744 -119.5917 330° Northwest 445 512 36,000  Level Oakland Center
09:40AM 36.4817 -119.6683 330° Northwest 448 516 36,000  Level Oakland Center
09:41AM 36.5883 -119.7458 330° Northwest 445 512 36,000  Level Oakland Center
09:42AM 36.6969 -119.8253 330° Northwest 451 519 36,000 -120 Level Oakland Center
09:43AM 36.8058 -119.9025 330° Northwest 449 517 35,800 -600 Descending Oakland Center
09:44AM 36.9117 -119.9789 330° Northwest 444 511 34,800 -1,020 Descending Oakland Center
09:45AM 37.0178 -120.0564 330° Northwest 441 507 33,800 -1,020 Descending Oakland Center
09:46AM 37.1367 -120.1436 330° Northwest 449 517 32,800 -1,020 Descending Oakland Center
09:47AM 37.2436 -120.2194 331° Northwest 446 513 31,800 -1,080 Descending Oakland Center
09:48AM 37.3528 -120.2944 331° Northwest 448 516 30,700 -3,300 Descending Oakland Center
09:49AM 37.4531 -120.3828 325° Northwest 443 510 25,200 -5,640 Descending Oakland Center
09:49AM 37.4833 -120.4167 318° Northwest 448 516 23,500 -2,340 Descending Northern Cal TRACON
09:50AM 37.5833 -120.5000 327° Northwest 423 487 22,200 -1,260 Descending Northern Cal TRACON
09:51AM 37.6378 -120.5628 318° Northwest 398 458 21,300 -1,320 Descending Oakland Center
09:52AM 37.7239 -120.6456 323° Northwest 391 450 19,900 -1,440 Descending Oakland Center
09:53AM 37.8089 -120.7311 322° Northwest 390 449 18,500 -1,560 Descending Oakland Center
09:54AM 37.8928 -120.8161 321° Northwest 385 443 16,800 -1,620 Descending Oakland Center
09:55AM 37.9739 -120.8981 321° Northwest 373 429 15,300 -1,500 Descending Oakland Center
09:56AM 38.0525 -120.9789 321° Northwest 367 422 13,800 -1,500 Descending Oakland Center
09:57AM 38.1206 -121.0683 314° West 354 407 12,300 -1,440 Descending Oakland Center
09:58AM 38.1833 -121.1667 309° West 348 400 11,200 -1,080 Descending Northern Cal TRACON
09:59AM 38.2500 -121.2667 310° West 331 381 10,200 -1,200 Descending Northern Cal TRACON
10:00AM 38.3000 -121.3333 314° West 284 327 8,800 -1,380 Descending Northern Cal TRACON
10:01AM 38.3500 -121.4167 307° West 269 310 7,500 -1,500 Descending Northern Cal TRACON
10:02AM 38.4000 -121.4833 314° West 268 308 6,000 -1,500 Descending Northern Cal TRACON
10:03AM 38.4500 -121.5500 314° West 262 302 4,700 -1,200 Descending Northern Cal TRACON
10:04AM 38.5000 -121.6000 322° Northwest 237 273 3,700 -1,080 Descending Northern Cal TRACON
10:05AM 38.5500 -121.6000 360° North 189 217 2,700 -960 Descending Northern Cal TRACON
10:06AM 38.5833 -121.6000 360° North 146 168 1,900 -780 Descending Northern Cal TRACON
10:07AM 38.6333 -121.6000 360° North 126 145 1,200 -660 Descending Northern Cal TRACON
10:08AM 38.6500 -121.6000 360° North 109 125 700 -600 Descending Northern Cal TRACON
10:09AM 38.6833 -121.6000 360° North 120 138 100 -600 Descending Northern Cal TRACON
10:11AM 38.6833 -121.5833 46° Northeast  Level FlightAware Approximate
10:18AM 38.6954 -121.5908 46° Northeast  Level Estimated